sensor_id;sensor_type;location;lat;lon;timestamp;P1;durP1;ratioP1;P2;durP2;ratioP2
19830;SDS011;10076;52.008;4.708;2024-03-02T00:02:06;20.77;;;19.07;;
19830;SDS011;10076;52.008;4.708;2024-03-02T00:04:32;20.90;;;19.20;;
19830;SDS011;10076;52.008;4.708;2024-03-02T00:06:57;21.07;;;19.37;;
19830;SDS011;10076;52.008;4.708;2024-03-02T00:09:22;20.73;;;19.03;;
19830;SDS011;10076;52.008;4.708;2024-03-02T00:11:48;21.03;;;19.33;;
19830;SDS011;10076;52.008;4.708;2024-03-02T00:14:13;20.90;;;19.20;;
19830;SDS011;10076;52.008;4.708;2024-03-02T00:16:39;21.60;;;19.70;;
19830;SDS011;10076;52.008;4.708;2024-03-02T00:19:05;20.70;;;19.00;;
19830;SDS011;10076;52.008;4.708;2024-03-02T00:21:31;20.70;;;19.00;;
19830;SDS011;10076;52.008;4.708;2024-03-02T00:23:58;21.13;;;19.33;;
19830;SDS011;10076;52.008;4.708;2024-03-02T00:26:23;20.93;;;19.23;;
19830;SDS011;10076;52.008;4.708;2024-03-02T00:28:48;21.37;;;19.67;;
19830;SDS011;10076;52.008;4.708;2024-03-02T00:31:15;21.27;;;19.57;;
19830;SDS011;10076;52.008;4.708;2024-03-02T00:33:44;21.10;;;19.40;;
19830;SDS011;10076;52.008;4.708;2024-03-02T00:36:11;21.20;;;19.50;;
19830;SDS011;10076;52.008;4.708;2024-03-02T00:38:56;21.63;;;19.93;;
19830;SDS011;10076;52.008;4.708;2024-03-02T00:41:26;21.13;;;19.43;;
19830;SDS011;10076;52.008;4.708;2024-03-02T00:46:22;22.07;;;20.27;;
19830;SDS011;10076;52.008;4.708;2024-03-02T00:48:51;21.30;;;19.60;;
19830;SDS011;10076;52.008;4.708;2024-03-02T00:51:19;20.77;;;19.07;;
19830;SDS011;10076;52.008;4.708;2024-03-02T00:53:45;21.27;;;19.53;;
19830;SDS011;10076;52.008;4.708;2024-03-02T00:56:10;22.20;;;20.40;;
19830;SDS011;10076;52.008;4.708;2024-03-02T00:58:37;21.57;;;19.87;;
19830;SDS011;10076;52.008;4.708;2024-03-02T01:01:02;22.07;;;20.27;;
19830;SDS011;10076;52.008;4.708;2024-03-02T01:03:28;21.70;;;20.00;;
19830;SDS011;10076;52.008;4.708;2024-03-02T01:05:53;22.17;;;20.47;;
19830;SDS011;10076;52.008;4.708;2024-03-02T01:08:18;22.00;;;20.17;;
19830;SDS011;10076;52.008;4.708;2024-03-02T01:10:44;22.00;;;20.30;;
19830;SDS011;10076;52.008;4.708;2024-03-02T01:13:09;22.90;;;21.10;;
19830;SDS011;10076;52.008;4.708;2024-03-02T01:15:35;22.67;;;20.87;;
19830;SDS011;10076;52.008;4.708;2024-03-02T01:18:00;22.73;;;20.93;;
19830;SDS011;10076;52.008;4.708;2024-03-02T01:20:25;23.23;;;21.33;;
19830;SDS011;10076;52.008;4.708;2024-03-02T01:22:51;23.13;;;21.23;;
19830;SDS011;10076;52.008;4.708;2024-03-02T01:25:17;23.57;;;21.60;;
19830;SDS011;10076;52.008;4.708;2024-03-02T01:27:42;22.90;;;21.00;;
19830;SDS011;10076;52.008;4.708;2024-03-02T01:30:08;22.60;;;20.70;;
19830;SDS011;10076;52.008;4.708;2024-03-02T01:32:33;24.00;;;21.77;;
19830;SDS011;10076;52.008;4.708;2024-03-02T01:34:59;23.27;;;21.47;;
19830;SDS011;10076;52.008;4.708;2024-03-02T01:37:24;23.20;;;21.40;;
19830;SDS011;10076;52.008;4.708;2024-03-02T01:39:49;23.07;;;21.17;;
19830;SDS011;10076;52.008;4.708;2024-03-02T01:42:15;22.90;;;21.10;;
19830;SDS011;10076;52.008;4.708;2024-03-02T01:44:40;23.83;;;21.93;;
19830;SDS011;10076;52.008;4.708;2024-03-02T01:47:06;23.67;;;21.77;;
19830;SDS011;10076;52.008;4.708;2024-03-02T01:49:31;23.77;;;21.77;;
19830;SDS011;10076;52.008;4.708;2024-03-02T01:51:59;23.43;;;21.53;;
19830;SDS011;10076;52.008;4.708;2024-03-02T01:54:24;22.80;;;21.00;;
19830;SDS011;10076;52.008;4.708;2024-03-02T01:56:49;22.90;;;21.10;;
19830;SDS011;10076;52.008;4.708;2024-03-02T01:59:15;22.57;;;20.77;;
19830;SDS011;10076;52.008;4.708;2024-03-02T02:01:40;22.63;;;20.83;;
19830;SDS011;10076;52.008;4.708;2024-03-02T02:04:06;22.07;;;20.27;;
19830;SDS011;10076;52.008;4.708;2024-03-02T02:06:32;23.27;;;21.37;;
19830;SDS011;10076;52.008;4.708;2024-03-02T02:08:57;22.67;;;20.87;;
19830;SDS011;10076;52.008;4.708;2024-03-02T02:11:23;21.67;;;19.97;;
19830;SDS011;10076;52.008;4.708;2024-03-02T02:13:49;22.33;;;20.53;;
19830;SDS011;10076;52.008;4.708;2024-03-02T02:16:15;22.30;;;20.50;;
19830;SDS011;10076;52.008;4.708;2024-03-02T02:18:40;21.70;;;19.93;;
19830;SDS011;10076;52.008;4.708;2024-03-02T02:21:05;22.33;;;20.53;;
19830;SDS011;10076;52.008;4.708;2024-03-02T02:23:31;22.20;;;20.40;;
19830;SDS011;10076;52.008;4.708;2024-03-02T02:25:56;22.33;;;20.53;;
19830;SDS011;10076;52.008;4.708;2024-03-02T02:28:21;22.77;;;20.83;;
19830;SDS011;10076;52.008;4.708;2024-03-02T02:30:46;22.60;;;20.80;;
19830;SDS011;10076;52.008;4.708;2024-03-02T02:33:12;23.33;;;21.43;;
19830;SDS011;10076;52.008;4.708;2024-03-02T02:35:37;22.20;;;20.40;;
19830;SDS011;10076;52.008;4.708;2024-03-02T02:38:02;22.60;;;20.80;;
19830;SDS011;10076;52.008;4.708;2024-03-02T02:40:28;23.00;;;21.10;;
19830;SDS011;10076;52.008;4.708;2024-03-02T02:42:57;22.67;;;20.87;;
19830;SDS011;10076;52.008;4.708;2024-03-02T02:45:24;23.67;;;21.40;;
19830;SDS011;10076;52.008;4.708;2024-03-02T02:47:49;23.07;;;21.17;;
19830;SDS011;10076;52.008;4.708;2024-03-02T02:50:14;23.23;;;21.33;;
19830;SDS011;10076;52.008;4.708;2024-03-02T02:52:40;23.53;;;21.63;;
19830;SDS011;10076;52.008;4.708;2024-03-02T02:55:07;23.20;;;21.30;;
19830;SDS011;10076;52.008;4.708;2024-03-02T02:57:38;23.13;;;21.23;;
19830;SDS011;10076;52.008;4.708;2024-03-02T03:00:06;22.93;;;21.03;;
19830;SDS011;10076;52.008;4.708;2024-03-02T03:02:38;22.57;;;20.77;;
19830;SDS011;10076;52.008;4.708;2024-03-02T03:05:05;23.30;;;21.40;;
19830;SDS011;10076;52.008;4.708;2024-03-02T03:07:31;23.50;;;21.60;;
19830;SDS011;10076;52.008;4.708;2024-03-02T03:09:57;23.07;;;21.17;;
19830;SDS011;10076;52.008;4.708;2024-03-02T03:12:23;23.57;;;21.37;;
19830;SDS011;10076;52.008;4.708;2024-03-02T03:14:48;23.57;;;21.67;;
19830;SDS011;10076;52.008;4.708;2024-03-02T03:17:13;22.43;;;20.63;;
19830;SDS011;10076;52.008;4.708;2024-03-02T03:19:39;22.60;;;20.80;;
19830;SDS011;10076;52.008;4.708;2024-03-02T03:22:04;23.10;;;21.20;;
19830;SDS011;10076;52.008;4.708;2024-03-02T03:24:29;22.93;;;21.10;;
19830;SDS011;10076;52.008;4.708;2024-03-02T03:26:55;22.73;;;20.90;;
19830;SDS011;10076;52.008;4.708;2024-03-02T03:29:20;22.90;;;21.00;;
19830;SDS011;10076;52.008;4.708;2024-03-02T03:31:45;23.23;;;21.23;;
19830;SDS011;10076;52.008;4.708;2024-03-02T03:34:10;23.67;;;21.77;;
19830;SDS011;10076;52.008;4.708;2024-03-02T03:36:40;23.60;;;21.70;;
19830;SDS011;10076;52.008;4.708;2024-03-02T03:39:06;23.50;;;21.60;;
19830;SDS011;10076;52.008;4.708;2024-03-02T03:41:31;23.80;;;21.57;;
19830;SDS011;10076;52.008;4.708;2024-03-02T03:43:56;23.90;;;22.00;;
19830;SDS011;10076;52.008;4.708;2024-03-02T03:46:22;23.70;;;21.77;;
19830;SDS011;10076;52.008;4.708;2024-03-02T03:48:47;23.47;;;21.57;;
19830;SDS011;10076;52.008;4.708;2024-03-02T03:51:12;23.67;;;21.77;;
19830;SDS011;10076;52.008;4.708;2024-03-02T03:53:37;23.77;;;21.87;;
19830;SDS011;10076;52.008;4.708;2024-03-02T03:56:03;24.27;;;22.27;;
19830;SDS011;10076;52.008;4.708;2024-03-02T03:58:28;24.10;;;22.20;;
19830;SDS011;10076;52.008;4.708;2024-03-02T04:00:54;23.93;;;21.93;;
19830;SDS011;10076;52.008;4.708;2024-03-02T04:03:19;23.27;;;21.37;;
19830;SDS011;10076;52.008;4.708;2024-03-02T04:05:44;23.60;;;21.70;;
19830;SDS011;10076;52.008;4.708;2024-03-02T04:08:09;23.90;;;22.00;;
19830;SDS011;10076;52.008;4.708;2024-03-02T04:10:36;23.27;;;21.47;;
19830;SDS011;10076;52.008;4.708;2024-03-02T04:13:01;23.77;;;21.87;;
19830;SDS011;10076;52.008;4.708;2024-03-02T04:15:27;24.43;;;22.53;;
19830;SDS011;10076;52.008;4.708;2024-03-02T04:17:52;23.67;;;21.77;;
19830;SDS011;10076;52.008;4.708;2024-03-02T04:20:17;23.53;;;21.63;;
19830;SDS011;10076;52.008;4.708;2024-03-02T04:22:42;23.93;;;22.03;;
19830;SDS011;10076;52.008;4.708;2024-03-02T04:25:08;23.57;;;21.67;;
19830;SDS011;10076;52.008;4.708;2024-03-02T04:27:34;24.27;;;22.37;;
19830;SDS011;10076;52.008;4.708;2024-03-02T04:29:59;24.03;;;22.13;;
19830;SDS011;10076;52.008;4.708;2024-03-02T04:32:25;23.80;;;21.90;;
19830;SDS011;10076;52.008;4.708;2024-03-02T04:34:53;25.10;;;23.10;;
19830;SDS011;10076;52.008;4.708;2024-03-02T04:37:19;25.27;;;23.27;;
19830;SDS011;10076;52.008;4.708;2024-03-02T04:39:44;24.67;;;22.67;;
19830;SDS011;10076;52.008;4.708;2024-03-02T04:42:10;24.70;;;22.70;;
19830;SDS011;10076;52.008;4.708;2024-03-02T04:44:35;23.40;;;21.50;;
19830;SDS011;10076;52.008;4.708;2024-03-02T04:47:01;23.60;;;21.70;;
19830;SDS011;10076;52.008;4.708;2024-03-02T04:49:27;24.70;;;22.70;;
19830;SDS011;10076;52.008;4.708;2024-03-02T04:51:52;24.40;;;22.47;;
19830;SDS011;10076;52.008;4.708;2024-03-02T04:54:18;25.40;;;23.40;;
19830;SDS011;10076;52.008;4.708;2024-03-02T04:56:43;24.97;;;22.97;;
19830;SDS011;10076;52.008;4.708;2024-03-02T04:59:09;25.53;;;23.33;;
19830;SDS011;10076;52.008;4.708;2024-03-02T05:01:35;24.87;;;22.77;;
19830;SDS011;10076;52.008;4.708;2024-03-02T05:04:01;24.27;;;22.37;;
19830;SDS011;10076;52.008;4.708;2024-03-02T05:06:26;24.23;;;22.23;;
19830;SDS011;10076;52.008;4.708;2024-03-02T05:08:51;23.67;;;21.77;;
19830;SDS011;10076;52.008;4.708;2024-03-02T05:11:17;25.23;;;23.23;;
19830;SDS011;10076;52.008;4.708;2024-03-02T05:14:07;25.23;;;23.23;;
19830;SDS011;10076;52.008;4.708;2024-03-02T05:16:32;25.33;;;23.33;;
19830;SDS011;10076;52.008;4.708;2024-03-02T05:18:59;25.40;;;23.33;;
19830;SDS011;10076;52.008;4.708;2024-03-02T05:21:24;25.37;;;23.37;;
19830;SDS011;10076;52.008;4.708;2024-03-02T05:23:49;26.13;;;24.13;;
19830;SDS011;10076;52.008;4.708;2024-03-02T05:26:14;24.97;;;22.97;;
19830;SDS011;10076;52.008;4.708;2024-03-02T05:28:40;25.30;;;23.20;;
19830;SDS011;10076;52.008;4.708;2024-03-02T05:31:05;25.90;;;23.80;;
19830;SDS011;10076;52.008;4.708;2024-03-02T05:33:31;26.00;;;23.47;;
19830;SDS011;10076;52.008;4.708;2024-03-02T05:35:58;24.67;;;22.67;;
19830;SDS011;10076;52.008;4.708;2024-03-02T05:38:23;25.00;;;22.97;;
19830;SDS011;10076;52.008;4.708;2024-03-02T05:40:48;25.67;;;23.57;;
19830;SDS011;10076;52.008;4.708;2024-03-02T05:43:14;25.00;;;23.00;;
19830;SDS011;10076;52.008;4.708;2024-03-02T05:45:39;26.60;;;24.43;;
19830;SDS011;10076;52.008;4.708;2024-03-02T05:48:05;25.57;;;23.47;;
19830;SDS011;10076;52.008;4.708;2024-03-02T05:50:34;25.70;;;23.60;;
19830;SDS011;10076;52.008;4.708;2024-03-02T05:53:00;25.13;;;23.13;;
19830;SDS011;10076;52.008;4.708;2024-03-02T05:55:25;25.53;;;23.43;;
19830;SDS011;10076;52.008;4.708;2024-03-02T05:57:50;25.47;;;23.37;;
19830;SDS011;10076;52.008;4.708;2024-03-02T06:00:31;25.93;;;23.83;;
19830;SDS011;10076;52.008;4.708;2024-03-02T06:02:56;25.70;;;23.60;;
19830;SDS011;10076;52.008;4.708;2024-03-02T06:05:22;26.13;;;23.93;;
19830;SDS011;10076;52.008;4.708;2024-03-02T06:07:47;25.83;;;23.73;;
19830;SDS011;10076;52.008;4.708;2024-03-02T06:10:12;26.57;;;24.47;;
19830;SDS011;10076;52.008;4.708;2024-03-02T06:12:38;26.67;;;24.57;;
19830;SDS011;10076;52.008;4.708;2024-03-02T06:15:03;25.83;;;23.73;;
19830;SDS011;10076;52.008;4.708;2024-03-02T06:17:29;28.30;;;26.10;;
19830;SDS011;10076;52.008;4.708;2024-03-02T06:19:54;25.83;;;23.80;;
19830;SDS011;10076;52.008;4.708;2024-03-02T06:22:20;26.97;;;24.77;;
19830;SDS011;10076;52.008;4.708;2024-03-02T06:24:46;27.27;;;25.17;;
19830;SDS011;10076;52.008;4.708;2024-03-02T06:27:11;26.60;;;24.50;;
19830;SDS011;10076;52.008;4.708;2024-03-02T06:29:37;26.63;;;24.53;;
19830;SDS011;10076;52.008;4.708;2024-03-02T06:32:02;25.40;;;23.40;;
19830;SDS011;10076;52.008;4.708;2024-03-02T06:34:27;25.33;;;23.23;;
19830;SDS011;10076;52.008;4.708;2024-03-02T06:36:53;25.27;;;23.17;;
19830;SDS011;10076;52.008;4.708;2024-03-02T06:39:18;25.27;;;23.17;;
19830;SDS011;10076;52.008;4.708;2024-03-02T06:41:43;25.10;;;23.00;;
19830;SDS011;10076;52.008;4.708;2024-03-02T06:44:09;24.03;;;22.03;;
19830;SDS011;10076;52.008;4.708;2024-03-02T06:46:34;24.73;;;22.73;;
19830;SDS011;10076;52.008;4.708;2024-03-02T06:48:59;24.83;;;22.73;;
19830;SDS011;10076;52.008;4.708;2024-03-02T06:51:27;25.40;;;23.30;;
19830;SDS011;10076;52.008;4.708;2024-03-02T06:53:52;25.30;;;23.13;;
19830;SDS011;10076;52.008;4.708;2024-03-02T06:56:17;25.23;;;23.13;;
19830;SDS011;10076;52.008;4.708;2024-03-02T06:58:43;25.60;;;23.50;;
19830;SDS011;10076;52.008;4.708;2024-03-02T07:01:08;25.53;;;23.43;;
19830;SDS011;10076;52.008;4.708;2024-03-02T07:03:34;25.00;;;22.90;;
19830;SDS011;10076;52.008;4.708;2024-03-02T07:06:00;25.30;;;23.20;;
19830;SDS011;10076;52.008;4.708;2024-03-02T07:08:25;26.00;;;23.80;;
19830;SDS011;10076;52.008;4.708;2024-03-02T07:10:51;24.63;;;22.63;;
19830;SDS011;10076;52.008;4.708;2024-03-02T07:13:16;25.33;;;23.23;;
19830;SDS011;10076;52.008;4.708;2024-03-02T07:15:41;25.60;;;23.50;;
19830;SDS011;10076;52.008;4.708;2024-03-02T07:18:25;24.60;;;22.60;;
19830;SDS011;10076;52.008;4.708;2024-03-02T07:20:51;25.23;;;23.13;;
19830;SDS011;10076;52.008;4.708;2024-03-02T07:23:16;26.07;;;23.97;;
19830;SDS011;10076;52.008;4.708;2024-03-02T07:25:41;25.33;;;23.33;;
19830;SDS011;10076;52.008;4.708;2024-03-02T07:28:06;24.60;;;22.60;;
19830;SDS011;10076;52.008;4.708;2024-03-02T07:30:32;24.40;;;22.40;;
19830;SDS011;10076;52.008;4.708;2024-03-02T07:32:58;24.50;;;22.50;;
19830;SDS011;10076;52.008;4.708;2024-03-02T07:35:24;25.27;;;22.73;;
19830;SDS011;10076;52.008;4.708;2024-03-02T07:37:52;25.10;;;23.10;;
19830;SDS011;10076;52.008;4.708;2024-03-02T07:40:18;24.97;;;22.97;;
19830;SDS011;10076;52.008;4.708;2024-03-02T07:42:44;30.77;;;28.47;;
19830;SDS011;10076;52.008;4.708;2024-03-02T07:45:10;25.60;;;23.27;;
19830;SDS011;10076;52.008;4.708;2024-03-02T07:47:35;25.00;;;22.97;;
19830;SDS011;10076;52.008;4.708;2024-03-02T07:50:01;25.10;;;22.90;;
19830;SDS011;10076;52.008;4.708;2024-03-02T07:52:27;25.33;;;22.93;;
19830;SDS011;10076;52.008;4.708;2024-03-02T07:54:52;25.73;;;23.63;;
19830;SDS011;10076;52.008;4.708;2024-03-02T07:57:17;25.43;;;23.43;;
19830;SDS011;10076;52.008;4.708;2024-03-02T07:59:43;25.77;;;23.67;;
19830;SDS011;10076;52.008;4.708;2024-03-02T08:02:08;25.90;;;23.90;;
19830;SDS011;10076;52.008;4.708;2024-03-02T08:04:33;25.67;;;23.67;;
19830;SDS011;10076;52.008;4.708;2024-03-02T08:06:59;25.17;;;23.17;;
19830;SDS011;10076;52.008;4.708;2024-03-02T08:09:24;25.60;;;23.40;;
19830;SDS011;10076;52.008;4.708;2024-03-02T08:11:50;24.47;;;22.57;;
19830;SDS011;10076;52.008;4.708;2024-03-02T08:14:16;25.63;;;23.63;;
19830;SDS011;10076;52.008;4.708;2024-03-02T08:16:41;24.67;;;22.67;;
19830;SDS011;10076;52.008;4.708;2024-03-02T08:19:07;27.13;;;25.03;;
19830;SDS011;10076;52.008;4.708;2024-03-02T08:21:33;25.80;;;23.80;;
19830;SDS011;10076;52.008;4.708;2024-03-02T08:24:00;25.87;;;23.97;;
19830;SDS011;10076;52.008;4.708;2024-03-02T08:26:27;26.43;;;24.43;;
19830;SDS011;10076;52.008;4.708;2024-03-02T08:28:54;26.10;;;24.10;;
19830;SDS011;10076;52.008;4.708;2024-03-02T08:31:20;25.47;;;23.57;;
19830;SDS011;10076;52.008;4.708;2024-03-02T08:33:45;25.87;;;23.97;;
19830;SDS011;10076;52.008;4.708;2024-03-02T08:36:10;26.67;;;24.67;;
19830;SDS011;10076;52.008;4.708;2024-03-02T08:38:36;26.77;;;24.77;;
19830;SDS011;10076;52.008;4.708;2024-03-02T08:41:02;27.33;;;25.43;;
19830;SDS011;10076;52.008;4.708;2024-03-02T08:43:28;26.50;;;24.60;;
19830;SDS011;10076;52.008;4.708;2024-03-02T08:45:54;26.23;;;24.00;;
19830;SDS011;10076;52.008;4.708;2024-03-02T08:48:19;26.60;;;24.70;;
19830;SDS011;10076;52.008;4.708;2024-03-02T08:50:45;26.07;;;24.17;;
19830;SDS011;10076;52.008;4.708;2024-03-02T08:53:11;26.13;;;24.33;;
19830;SDS011;10076;52.008;4.708;2024-03-02T08:55:37;26.00;;;24.20;;
19830;SDS011;10076;52.008;4.708;2024-03-02T08:58:02;26.33;;;24.53;;
19830;SDS011;10076;52.008;4.708;2024-03-02T09:00:28;25.80;;;23.80;;
19830;SDS011;10076;52.008;4.708;2024-03-02T09:02:56;25.43;;;23.73;;
19830;SDS011;10076;52.008;4.708;2024-03-02T09:05:21;26.53;;;24.77;;
19830;SDS011;10076;52.008;4.708;2024-03-02T09:07:46;26.93;;;25.03;;
19830;SDS011;10076;52.008;4.708;2024-03-02T09:10:12;25.23;;;23.53;;
19830;SDS011;10076;52.008;4.708;2024-03-02T09:12:37;25.67;;;23.30;;
19830;SDS011;10076;52.008;4.708;2024-03-02T09:15:03;26.10;;;24.40;;
19830;SDS011;10076;52.008;4.708;2024-03-02T09:17:29;25.23;;;23.63;;
19830;SDS011;10076;52.008;4.708;2024-03-02T09:19:54;27.80;;;25.90;;
19830;SDS011;10076;52.008;4.708;2024-03-02T09:22:20;27.03;;;25.23;;
19830;SDS011;10076;52.008;4.708;2024-03-02T09:24:46;27.17;;;25.37;;
19830;SDS011;10076;52.008;4.708;2024-03-02T09:27:11;27.37;;;25.50;;
19830;SDS011;10076;52.008;4.708;2024-03-02T09:29:37;25.87;;;24.00;;
19830;SDS011;10076;52.008;4.708;2024-03-02T09:32:02;26.93;;;25.23;;
19830;SDS011;10076;52.008;4.708;2024-03-02T09:34:28;25.67;;;24.07;;
19830;SDS011;10076;52.008;4.708;2024-03-02T09:36:53;24.87;;;23.17;;
19830;SDS011;10076;52.008;4.708;2024-03-02T09:39:18;25.07;;;23.47;;
19830;SDS011;10076;52.008;4.708;2024-03-02T09:41:44;24.50;;;23.00;;
19830;SDS011;10076;52.008;4.708;2024-03-02T09:44:09;24.57;;;23.07;;
19830;SDS011;10076;52.008;4.708;2024-03-02T09:46:35;27.07;;;25.37;;
19830;SDS011;10076;52.008;4.708;2024-03-02T09:49:01;25.23;;;23.73;;
19830;SDS011;10076;52.008;4.708;2024-03-02T09:51:27;25.27;;;23.40;;
19830;SDS011;10076;52.008;4.708;2024-03-02T09:53:52;24.27;;;22.60;;
19830;SDS011;10076;52.008;4.708;2024-03-02T09:56:20;21.70;;;20.50;;
19830;SDS011;10076;52.008;4.708;2024-03-02T09:58:46;22.50;;;21.20;;
19830;SDS011;10076;52.008;4.708;2024-03-02T10:01:12;22.13;;;20.88;;
19830;SDS011;10076;52.008;4.708;2024-03-02T10:03:37;21.30;;;20.00;;
19830;SDS011;10076;52.008;4.708;2024-03-02T10:06:20;21.88;;;20.50;;
19830;SDS011;10076;52.008;4.708;2024-03-02T10:08:49;20.45;;;19.25;;
19830;SDS011;10076;52.008;4.708;2024-03-02T10:11:33;20.70;;;19.55;;
19830;SDS011;10076;52.008;4.708;2024-03-02T10:16:37;21.35;;;19.95;;
19830;SDS011;10076;52.008;4.708;2024-03-02T10:19:17;18.55;;;17.55;;
19830;SDS011;10076;52.008;4.708;2024-03-02T10:21:44;19.15;;;17.65;;
19830;SDS011;10076;52.008;4.708;2024-03-02T10:24:13;17.55;;;16.55;;
19830;SDS011;10076;52.008;4.708;2024-03-02T10:26:38;17.33;;;16.42;;
19830;SDS011;10076;52.008;4.708;2024-03-02T10:29:04;17.67;;;16.58;;
19830;SDS011;10076;52.008;4.708;2024-03-02T10:31:29;16.08;;;15.25;;
19830;SDS011;10076;52.008;4.708;2024-03-02T10:33:55;15.88;;;14.88;;
19830;SDS011;10076;52.008;4.708;2024-03-02T10:36:21;16.05;;;15.05;;
19830;SDS011;10076;52.008;4.708;2024-03-02T10:38:50;15.98;;;15.18;;
19830;SDS011;10076;52.008;4.708;2024-03-02T10:41:20;15.50;;;14.60;;
19830;SDS011;10076;52.008;4.708;2024-03-02T10:43:49;15.90;;;15.00;;
19830;SDS011;10076;52.008;4.708;2024-03-02T10:46:24;15.98;;;15.00;;
19830;SDS011;10076;52.008;4.708;2024-03-02T10:48:54;15.35;;;14.55;;
19830;SDS011;10076;52.008;4.708;2024-03-02T10:51:20;16.00;;;15.10;;
19830;SDS011;10076;52.008;4.708;2024-03-02T10:53:45;15.52;;;14.73;;
19830;SDS011;10076;52.008;4.708;2024-03-02T10:56:11;15.30;;;14.40;;
19830;SDS011;10076;52.008;4.708;2024-03-02T10:58:47;15.70;;;14.68;;
19830;SDS011;10076;52.008;4.708;2024-03-02T11:01:16;15.68;;;14.68;;
19830;SDS011;10076;52.008;4.708;2024-03-02T11:03:45;15.60;;;14.75;;
19830;SDS011;10076;52.008;4.708;2024-03-02T11:06:14;16.35;;;15.20;;
19830;SDS011;10076;52.008;4.708;2024-03-02T11:08:40;16.30;;;15.30;;
19830;SDS011;10076;52.008;4.708;2024-03-02T11:11:07;15.55;;;14.75;;
19830;SDS011;10076;52.008;4.708;2024-03-02T11:13:35;15.32;;;14.52;;
19830;SDS011;10076;52.008;4.708;2024-03-02T11:16:04;15.65;;;14.65;;
19830;SDS011;10076;52.008;4.708;2024-03-02T11:18:35;15.60;;;14.80;;
19830;SDS011;10076;52.008;4.708;2024-03-02T11:21:01;15.90;;;15.00;;
19830;SDS011;10076;52.008;4.708;2024-03-02T11:23:32;15.88;;;14.98;;
19830;SDS011;10076;52.008;4.708;2024-03-02T11:26:20;16.02;;;15.13;;
19830;SDS011;10076;52.008;4.708;2024-03-02T11:28:46;15.85;;;15.00;;
19830;SDS011;10076;52.008;4.708;2024-03-02T11:31:14;15.70;;;14.90;;
19830;SDS011;10076;52.008;4.708;2024-03-02T11:33:40;16.20;;;15.30;;
19830;SDS011;10076;52.008;4.708;2024-03-02T11:36:08;16.23;;;15.23;;
19830;SDS011;10076;52.008;4.708;2024-03-02T11:38:34;15.65;;;14.65;;
19830;SDS011;10076;52.008;4.708;2024-03-02T11:41:01;15.98;;;15.07;;
19830;SDS011;10076;52.008;4.708;2024-03-02T11:43:28;16.10;;;15.20;;
19830;SDS011;10076;52.008;4.708;2024-03-02T11:45:58;15.82;;;14.80;;
19830;SDS011;10076;52.008;4.708;2024-03-02T11:48:29;15.55;;;14.75;;
19830;SDS011;10076;52.008;4.708;2024-03-02T11:50:54;15.70;;;14.70;;
19830;SDS011;10076;52.008;4.708;2024-03-02T11:53:23;16.20;;;15.20;;
19830;SDS011;10076;52.008;4.708;2024-03-02T11:55:49;16.27;;;15.32;;
19830;SDS011;10076;52.008;4.708;2024-03-02T11:58:17;16.10;;;15.20;;
19830;SDS011;10076;52.008;4.708;2024-03-02T12:00:46;16.15;;;15.07;;
19830;SDS011;10076;52.008;4.708;2024-03-02T12:03:12;16.40;;;15.25;;
19830;SDS011;10076;52.008;4.708;2024-03-02T12:05:39;15.45;;;14.63;;
19830;SDS011;10076;52.008;4.708;2024-03-02T12:08:05;15.45;;;14.63;;
19830;SDS011;10076;52.008;4.708;2024-03-02T12:10:32;15.55;;;14.73;;
19830;SDS011;10076;52.008;4.708;2024-03-02T12:12:58;15.40;;;14.60;;
19830;SDS011;10076;52.008;4.708;2024-03-02T12:15:29;16.05;;;15.15;;
19830;SDS011;10076;52.008;4.708;2024-03-02T12:17:56;15.63;;;14.82;;
19830;SDS011;10076;52.008;4.708;2024-03-02T12:20:26;15.63;;;14.82;;
19830;SDS011;10076;52.008;4.708;2024-03-02T12:22:54;15.73;;;14.82;;
19830;SDS011;10076;52.008;4.708;2024-03-02T12:25:20;16.42;;;15.55;;
19830;SDS011;10076;52.008;4.708;2024-03-02T12:27:46;16.05;;;15.10;;
19830;SDS011;10076;52.008;4.708;2024-03-02T12:30:13;16.08;;;15.10;;
19830;SDS011;10076;52.008;4.708;2024-03-02T12:32:40;15.95;;;14.95;;
19830;SDS011;10076;52.008;4.708;2024-03-02T12:35:06;15.80;;;15.00;;
19830;SDS011;10076;52.008;4.708;2024-03-02T12:37:31;15.77;;;14.77;;
19830;SDS011;10076;52.008;4.708;2024-03-02T12:39:57;15.75;;;14.88;;
19830;SDS011;10076;52.008;4.708;2024-03-02T12:42:23;15.80;;;14.88;;
19830;SDS011;10076;52.008;4.708;2024-03-02T12:44:51;15.63;;;14.82;;
19830;SDS011;10076;52.008;4.708;2024-03-02T12:47:19;15.63;;;14.77;;
19830;SDS011;10076;52.008;4.708;2024-03-02T12:49:44;15.68;;;14.88;;
19830;SDS011;10076;52.008;4.708;2024-03-02T12:52:11;15.88;;;15.02;;
19830;SDS011;10076;52.008;4.708;2024-03-02T12:54:38;15.80;;;14.73;;
19830;SDS011;10076;52.008;4.708;2024-03-02T12:57:03;15.80;;;15.00;;
19830;SDS011;10076;52.008;4.708;2024-03-02T12:59:29;15.52;;;14.63;;
19830;SDS011;10076;52.008;4.708;2024-03-02T13:01:54;15.45;;;14.65;;
19830;SDS011;10076;52.008;4.708;2024-03-02T13:04:24;16.08;;;14.90;;
19830;SDS011;10076;52.008;4.708;2024-03-02T13:06:53;15.48;;;14.55;;
19830;SDS011;10076;52.008;4.708;2024-03-02T13:09:21;15.80;;;14.98;;
19830;SDS011;10076;52.008;4.708;2024-03-02T13:11:46;16.13;;;15.15;;
19830;SDS011;10076;52.008;4.708;2024-03-02T13:14:12;15.10;;;14.30;;
19830;SDS011;10076;52.008;4.708;2024-03-02T13:16:38;15.57;;;14.77;;
19830;SDS011;10076;52.008;4.708;2024-03-02T13:19:07;15.45;;;14.57;;
19830;SDS011;10076;52.008;4.708;2024-03-02T13:21:38;15.50;;;14.55;;
19830;SDS011;10076;52.008;4.708;2024-03-02T13:24:04;15.48;;;14.57;;
19830;SDS011;10076;52.008;4.708;2024-03-02T13:26:30;15.77;;;14.57;;
19830;SDS011;10076;52.008;4.708;2024-03-02T13:28:56;15.57;;;14.60;;
19830;SDS011;10076;52.008;4.708;2024-03-02T13:31:21;15.13;;;14.32;;
19830;SDS011;10076;52.008;4.708;2024-03-02T13:33:47;15.70;;;14.90;;
19830;SDS011;10076;52.008;4.708;2024-03-02T13:36:12;15.18;;;14.30;;
19830;SDS011;10076;52.008;4.708;2024-03-02T13:38:38;15.10;;;14.30;;
19830;SDS011;10076;52.008;4.708;2024-03-02T13:41:03;14.90;;;14.10;;
19830;SDS011;10076;52.008;4.708;2024-03-02T13:43:28;15.00;;;14.27;;
19830;SDS011;10076;52.008;4.708;2024-03-02T13:45:57;15.57;;;14.68;;
19830;SDS011;10076;52.008;4.708;2024-03-02T13:48:23;15.80;;;14.80;;
19830;SDS011;10076;52.008;4.708;2024-03-02T13:50:50;15.73;;;14.85;;
19830;SDS011;10076;52.008;4.708;2024-03-02T13:53:17;14.98;;;14.18;;
19830;SDS011;10076;52.008;4.708;2024-03-02T13:55:42;15.80;;;14.93;;
19830;SDS011;10076;52.008;4.708;2024-03-02T13:58:08;15.48;;;14.70;;
19830;SDS011;10076;52.008;4.708;2024-03-02T14:00:34;15.40;;;14.60;;
19830;SDS011;10076;52.008;4.708;2024-03-02T14:02:59;15.20;;;14.40;;
19830;SDS011;10076;52.008;4.708;2024-03-02T14:05:25;15.80;;;14.82;;
19830;SDS011;10076;52.008;4.708;2024-03-02T14:07:50;17.00;;;15.63;;
19830;SDS011;10076;52.008;4.708;2024-03-02T14:10:16;15.52;;;14.73;;
19830;SDS011;10076;52.008;4.708;2024-03-02T14:12:42;15.70;;;14.70;;
19830;SDS011;10076;52.008;4.708;2024-03-02T14:15:08;16.20;;;15.27;;
19830;SDS011;10076;52.008;4.708;2024-03-02T14:17:33;15.55;;;14.75;;
19830;SDS011;10076;52.008;4.708;2024-03-02T14:19:59;15.90;;;15.10;;
19830;SDS011;10076;52.008;4.708;2024-03-02T14:22:24;15.50;;;14.60;;